Time;durP1;ratioP1;P1;durP2;ratioP2;P2;SDS_P1;SDS_P2;PMS_P1;PMS_P2;Temp;Humidity;BMP_temperature;BMP_pressure;BME280_temperature;BME280_humidity;BME280_pressure;Samples;Min_cycle;Max_cycle;Signal;HPM_P1;HPM_P2
2023/03/05 00:01:12;;;;;;;;;;;;;;;1.32;72.43;101795.88;5002787;28;19917;-73
2023/03/05 00:03:38;;;;;;;;;;;;;;;1.40;71.93;101799.44;5002318;28;19914;-71
2023/03/05 00:06:04;;;;;;;;;;;;;;;1.33;72.19;101802.78;4994516;28;19967;-71
2023/03/05 00:08:48;;;;;;;;;;;;;;;1.32;72.35;101798.53;4997025;28;19975;-71
2023/03/05 00:11:14;;;;;;;;;;;;;;;1.48;72.11;101799.31;4990405;28;19917;-72
2023/03/05 00:13:42;;;;;;;;;;;;;;;1.43;73.25;101791.16;4998780;28;19992;-71
2023/03/05 00:16:10;;;;;;;;;;;;;;;1.47;73.03;101785.31;5001207;28;19992;-72
2023/03/05 00:18:36;;;;;;;;;;;;;;;1.46;73.63;101793.41;4982726;28;20543;-71
2023/03/05 00:21:02;;;;;;;;;;;;;;;1.44;73.91;101784.88;5001395;28;20382;-70
2023/03/05 00:23:27;;;;;;;;;;;;;;;1.41;74.01;101785.22;4986921;28;19967;-71
2023/03/05 00:25:53;;;;;;;;;;;;;;;1.43;74.05;101783.25;4998927;28;20378;-71
2023/03/05 00:28:18;;;;;;;;;;;;;;;1.46;74.32;101774.94;4999181;28;19940;-72
2023/03/05 00:30:44;;;;;;;;;;;;;;;1.44;74.28;101774.31;5000658;28;20816;-71
2023/03/05 00:33:11;;;;;;;;;;;;;;;1.42;74.48;101776.28;4985289;28;19917;-72
2023/03/05 00:35:42;;;;;;;;;;;;;;;1.59;73.30;101777.75;5001223;28;20868;-72
2023/03/05 00:38:08;;;;;;;;;;;;;;;1.61;73.06;101775.72;5002453;28;20404;-71
2023/03/05 00:40:37;;;;;;;;;;;;;;;1.61;72.67;101779.19;5002354;28;19917;-71
2023/03/05 00:43:03;;;;;;;;;;;;;;;1.56;74.08;101780.75;5002892;28;20017;-72
2023/03/05 00:45:29;;;;;;;;;;;;;;;1.49;74.89;101780.69;5003799;28;20635;-71
2023/03/05 00:47:55;;;;;;;;;;;;;;;1.47;75.68;101776.56;4994404;28;19918;-72
2023/03/05 00:50:20;;;;;;;;;;;;;;;1.38;77.01;101767.94;5004955;28;19917;-72
2023/03/05 00:52:45;;;;;;;;;;;;;;;1.30;78.40;101774.13;5000650;28;19921;-71
2023/03/05 00:55:13;;;;;;;;;;;;;;;1.24;79.05;101774.88;4970700;28;19917;-71
2023/03/05 00:57:39;;;;;;;;;;;;;;;1.19;80.15;101766.66;4984459;28;20333;-72
2023/03/05 01:00:06;;;;;;;;;;;;;;;1.10;80.82;101759.84;4985381;28;19913;-72
2023/03/05 01:02:35;;;;;;;;;;;;;;;1.07;82.33;101760.22;4999384;28;19968;-71
2023/03/05 01:05:00;;;;;;;;;;;;;;;1.05;82.81;101743.75;5000599;28;19924;-72
2023/03/05 01:07:26;;;;;;;;;;;;;;;1.01;83.17;101748.56;4997876;28;19921;-73
2023/03/05 01:09:51;;;;;;;;;;;;;;;0.98;82.93;101746.28;4987138;28;19917;-71
2023/03/05 01:12:17;;;;;;;;;;;;;;;0.93;83.15;101735.47;5001682;28;19957;-72
2023/03/05 01:14:43;;;;;;;;;;;;;;;0.87;83.16;101736.19;4999860;28;19928;-71
2023/03/05 01:17:08;;;;;;;;;;;;;;;0.81;83.37;101737.75;5002839;28;19917;-72
2023/03/05 01:19:34;;;;;;;;;;;;;;;0.86;83.94;101739.00;5001062;28;20330;-74
2023/03/05 01:22:00;;;;;;;;;;;;;;;0.95;83.91;101737.91;5004152;28;19917;-72
2023/03/05 01:24:25;;;;;;;;;;;;;;;0.90;83.93;101730.56;4968203;28;20450;-72
2023/03/05 01:26:51;;;;;;;;;;;;;;;0.93;83.53;101732.81;5000810;28;19917;-72
2023/03/05 01:29:17;;;;;;;;;;;;;;;0.90;83.28;101733.19;4985884;28;19928;-72
2023/03/05 01:31:43;;;;;;;;;;;;;;;0.95;83.44;101724.72;5001173;28;20350;-72
2023/03/05 01:34:08;;;;;;;;;;;;;;;1.02;83.20;101728.31;5001011;28;20004;-71
2023/03/05 01:36:34;;;;;;;;;;;;;;;1.06;83.40;101721.63;5003088;28;19917;-71
2023/03/05 01:39:00;;;;;;;;;;;;;;;1.02;83.44;101710.66;5002970;28;19921;-72
2023/03/05 01:41:25;;;;;;;;;;;;;;;1.23;81.88;101723.09;5000890;28;20398;-71
2023/03/05 01:43:54;;;;;;;;;;;;;;;1.14;82.06;101707.53;5002733;28;19971;-72
2023/03/05 01:46:29;;;;;;;;;;;;;;;1.14;82.25;101711.00;5002865;28;19913;-70
2023/03/05 01:49:01;;;;;;;;;;;;;;;1.21;81.23;101703.97;5000019;28;20039;-72
2023/03/05 01:51:28;;;;;;;;;;;;;;;1.14;81.36;101694.34;4999597;28;19970;-72
2023/03/05 01:53:56;;;;;;;;;;;;;;;1.03;81.97;101703.56;5000614;28;19948;-71
2023/03/05 01:56:21;;;;;;;;;;;;;;;1.02;82.27;101700.09;5002211;28;20130;-71
2023/03/05 01:58:47;;;;;;;;;;;;;;;1.07;82.45;101696.91;4981688;28;20366;-71
2023/03/05 02:01:13;;;;;;;;;;;;;;;1.02;82.36;101686.91;4983065;28;20465;-71
2023/03/05 02:03:40;;;;;;;;;;;;;;;0.98;82.75;101700.63;4984477;28;19921;-72
2023/03/05 02:06:05;;;;;;;;;;;;;;;0.98;82.94;101700.63;4985898;28;19917;-72
2023/03/05 02:08:32;;;;;;;;;;;;;;;1.00;82.76;101698.63;4997906;28;20306;-71
2023/03/05 02:10:59;;;;;;;;;;;;;;;1.04;82.60;101687.53;4996495;28;20020;-72
2023/03/05 02:13:26;;;;;;;;;;;;;;;0.88;82.67;101684.25;5000775;28;19924;-72
2023/03/05 02:15:56;;;;;;;;;;;;;;;0.86;83.45;101676.53;5002183;28;20004;-71
2023/03/05 02:18:23;;;;;;;;;;;;;;;0.63;84.52;101676.63;4987998;28;20149;-72
2023/03/05 02:20:50;;;;;;;;;;;;;;;0.53;85.05;101683.97;4972659;28;19924;-71
2023/03/05 02:23:22;;;;;;;;;;;;;;;0.45;85.56;101689.34;5001099;28;19925;-71
2023/03/05 02:25:47;;;;;;;;;;;;;;;0.46;86.33;101689.16;4997574;28;20382;-71
2023/03/05 02:28:22;;;;;;;;;;;;;;;0.50;86.56;101679.06;4998991;28;19924;-71
2023/03/05 02:30:48;;;;;;;;;;;;;;;0.51;86.69;101672.81;4985521;28;19928;-70
2023/03/05 02:33:15;;;;;;;;;;;;;;;0.39;86.71;101674.22;4984292;28;19920;-72
2023/03/05 02:35:42;;;;;;;;;;;;;;;0.29;86.98;101663.16;5002826;28;19917;-71
2023/03/05 02:38:13;;;;;;;;;;;;;;;0.23;87.20;101662.03;5000753;28;19928;-71
2023/03/05 02:40:47;;;;;;;;;;;;;;;0.29;87.38;101658.69;4991150;28;19917;-71
2023/03/05 02:43:18;;;;;;;;;;;;;;;0.35;87.44;101657.97;4991938;28;19917;-71
2023/03/05 02:45:44;;;;;;;;;;;;;;;0.30;87.65;101664.78;4989008;28;19924;-71
2023/03/05 02:48:09;;;;;;;;;;;;;;;0.32;87.65;101655.69;4973997;28;19924;-72
2023/03/05 02:50:35;;;;;;;;;;;;;;;0.37;87.33;101660.44;5005779;28;19917;-71
2023/03/05 02:53:01;;;;;;;;;;;;;;;0.41;87.28;101653.81;5005964;28;19918;-71
2023/03/05 02:55:34;;;;;;;;;;;;;;;0.40;87.21;101650.34;4986518;28;19994;-71
2023/03/05 02:58:00;;;;;;;;;;;;;;;0.46;87.29;101649.63;4993305;28;19922;-71
2023/03/05 03:00:32;;;;;;;;;;;;;;;0.43;87.33;101646.53;4991793;28;19921;-70
2023/03/05 03:02:58;;;;;;;;;;;;;;;0.47;87.49;101645.97;4990546;28;19917;-72
2023/03/05 03:05:26;;;;;;;;;;;;;;;0.43;87.45;101642.09;4984393;28;19932;-71
2023/03/05 03:07:53;;;;;;;;;;;;;;;0.42;87.43;101637.00;4987213;28;19921;-71
2023/03/05 03:10:19;;;;;;;;;;;;;;;0.46;87.37;101644.34;4970348;28;19920;-71
2023/03/05 03:12:44;;;;;;;;;;;;;;;0.45;86.91;101629.53;5004264;28;19932;-71
2023/03/05 03:15:11;;;;;;;;;;;;;;;0.45;87.08;101629.53;4973456;28;20291;-71
2023/03/05 03:17:37;;;;;;;;;;;;;;;0.48;86.83;101625.75;4992370;28;20286;-72
2023/03/05 03:20:04;;;;;;;;;;;;;;;0.31;86.93;101619.81;5008390;28;19917;-71
2023/03/05 03:22:30;;;;;;;;;;;;;;;0.19;86.97;101622.06;4992830;28;19923;-71
2023/03/05 03:24:56;;;;;;;;;;;;;;;0.10;87.13;101615.22;5006165;28;19921;-71
2023/03/05 03:27:21;;;;;;;;;;;;;;;0.00;87.56;101609.41;5004262;28;20395;-72
2023/03/05 03:29:51;;;;;;;;;;;;;;;-0.04;87.16;101594.97;5005855;28;19917;-70
2023/03/05 03:32:17;;;;;;;;;;;;;;;-0.04;86.82;101605.50;5009098;28;20363;-70
2023/03/05 03:34:43;;;;;;;;;;;;;;;-0.16;87.14;101601.66;5005376;28;20003;-70
2023/03/05 03:37:09;;;;;;;;;;;;;;;-0.31;87.61;101597.16;5005245;28;20349;-68
2023/03/05 03:39:45;;;;;;;;;;;;;;;-0.28;87.64;101599.44;5010286;28;19968;-71
2023/03/05 03:42:10;;;;;;;;;;;;;;;-0.34;87.66;101594.91;5007383;28;20011;-71
2023/03/05 03:44:35;;;;;;;;;;;;;;;-0.34;87.89;101597.53;4976060;28;19983;-71
2023/03/05 03:47:01;;;;;;;;;;;;;;;-0.31;87.65;101589.25;4989371;28;19917;-70
2023/03/05 03:49:27;;;;;;;;;;;;;;;-0.19;87.41;101581.78;5006657;28;19921;-70
2023/03/05 03:51:56;;;;;;;;;;;;;;;-0.22;87.15;101583.94;5004819;28;19945;-71
2023/03/05 03:54:22;;;;;;;;;;;;;;;-0.49;87.32;101582.66;4987922;28;19928;-72
2023/03/05 03:56:48;;;;;;;;;;;;;;;-0.51;87.49;101588.09;5003080;28;19921;-71
2023/03/05 03:59:13;;;;;;;;;;;;;;;-0.64;87.57;101579.97;5002365;28;19913;-71
2023/03/05 04:01:39;;;;;;;;;;;;;;;-0.45;87.23;101583.97;5003015;28;19921;-71
2023/03/05 04:04:07;;;;;;;;;;;;;;;-0.55;87.48;101582.38;5000431;28;20289;-71
2023/03/05 04:06:33;;;;;;;;;;;;;;;-0.53;87.51;101574.31;5004247;28;19917;-71
2023/03/05 04:08:59;;;;;;;;;;;;;;;-0.48;86.97;101577.22;5002126;28;19921;-71
2023/03/05 04:11:24;;;;;;;;;;;;;;;-0.44;87.05;101580.34;4998717;28;19991;-71
2023/03/05 04:13:50;;;;;;;;;;;;;;;-0.36;86.94;101575.00;5002082;28;19921;-71
2023/03/05 04:16:16;;;;;;;;;;;;;;;-0.31;86.74;101576.09;5007101;28;19922;-71
2023/03/05 04:18:42;;;;;;;;;;;;;;;-0.28;86.86;101573.09;5010369;28;19918;-71
2023/03/05 04:21:08;;;;;;;;;;;;;;;0.08;84.90;101569.00;5009107;28;19918;-71
2023/03/05 04:23:34;;;;;;;;;;;;;;;-0.04;85.47;101568.63;4988325;28;19918;-70
2023/03/05 04:25:59;;;;;;;;;;;;;;;0.07;84.80;101562.94;5003628;28;20012;-71
2023/03/05 04:28:25;;;;;;;;;;;;;;;0.08;84.81;101567.19;5007903;28;19996;-71
2023/03/05 04:30:51;;;;;;;;;;;;;;;0.08;85.28;101569.84;4975581;28;20366;-71
2023/03/05 04:33:16;;;;;;;;;;;;;;;0.07;85.43;101565.56;5008976;28;20329;-70
2023/03/05 04:35:42;;;;;;;;;;;;;;;0.05;85.41;101556.19;4991465;28;19922;-71
2023/03/05 04:38:07;;;;;;;;;;;;;;;0.18;85.27;101551.94;5005444;28;19921;-71
2023/03/05 04:40:33;;;;;;;;;;;;;;;0.12;85.40;101552.66;4981239;28;19944;-70
2023/03/05 04:42:58;;;;;;;;;;;;;;;0.15;85.78;101552.31;5010472;28;19921;-70
2023/03/05 04:45:24;;;;;;;;;;;;;;;0.19;85.70;101553.56;5007131;28;20541;-71
2023/03/05 04:47:49;;;;;;;;;;;;;;;0.18;85.79;101549.28;5005548;28;19922;-71
2023/03/05 04:50:15;;;;;;;;;;;;;;;0.24;85.95;101547.75;5002746;28;20378;-72
2023/03/05 04:52:42;;;;;;;;;;;;;;;0.33;85.94;101548.47;4989204;28;19919;-71
2023/03/05 04:55:08;;;;;;;;;;;;;;;0.29;85.87;101547.22;5004531;28;20016;-70
2023/03/05 04:57:34;;;;;;;;;;;;;;;0.27;85.88;101534.22;4990160;28;19921;-71
2023/03/05 04:59:59;;;;;;;;;;;;;;;0.26;85.84;101538.66;4988071;28;19987;-73
2023/03/05 05:02:25;;;;;;;;;;;;;;;0.25;85.95;101536.22;5008640;28;19960;-71
2023/03/05 05:04:53;;;;;;;;;;;;;;;0.26;85.92;101537.84;4989581;28;20879;-71
2023/03/05 05:07:20;;;;;;;;;;;;;;;0.23;85.68;101531.13;5010325;28;20292;-71
2023/03/05 05:09:45;;;;;;;;;;;;;;;0.21;85.82;101525.25;5001580;28;20371;-71
2023/03/05 05:12:14;;;;;;;;;;;;;;;0.24;85.92;101524.88;4988953;28;19917;-72
2023/03/05 05:14:40;;;;;;;;;;;;;;;0.23;86.40;101522.41;5008577;28;20384;-72
2023/03/05 05:17:05;;;;;;;;;;;;;;;0.15;86.14;101515.44;4973244;28;19921;-71
2023/03/05 05:19:31;;;;;;;;;;;;;;;0.12;86.10;101521.03;5003754;28;20349;-73
2023/03/05 05:21:57;;;;;;;;;;;;;;;0.08;86.23;101514.53;5001491;28;20044;-72
2023/03/05 05:24:24;;;;;;;;;;;;;;;0.03;86.26;101516.88;4986587;28;19931;-72
2023/03/05 05:26:50;;;;;;;;;;;;;;;0.00;86.25;101517.25;4969720;28;20283;-71
2023/03/05 05:29:15;;;;;;;;;;;;;;;-0.03;86.81;101520.22;5003217;28;20396;-71
2023/03/05 05:31:41;;;;;;;;;;;;;;;-0.04;86.51;101511.50;5003228;28;19983;-70
2023/03/05 05:34:09;;;;;;;;;;;;;;;-0.09;86.68;101515.69;4993324;28;20441;-72
2023/03/05 05:36:35;;;;;;;;;;;;;;;-0.16;86.75;101512.94;5005951;28;19928;-72
2023/03/05 05:39:00;;;;;;;;;;;;;;;-0.15;86.65;101511.13;5001269;28;19917;-71
2023/03/05 05:41:26;;;;;;;;;;;;;;;-0.16;86.74;101504.22;5000753;28;19918;-70
2023/03/05 05:43:52;;;;;;;;;;;;;;;-0.14;86.69;101499.59;5002919;28;19932;-70
2023/03/05 05:46:19;;;;;;;;;;;;;;;-0.22;86.78;101502.31;5002141;28;20003;-72
2023/03/05 05:48:44;;;;;;;;;;;;;;;-0.23;86.99;101509.41;4986032;28;19960;-71
2023/03/05 05:51:15;;;;;;;;;;;;;;;-0.14;86.77;101499.59;4988960;28;19917;-72
2023/03/05 05:53:41;;;;;;;;;;;;;;;-0.17;86.97;101499.97;5003313;28;19917;-71
2023/03/05 05:56:09;;;;;;;;;;;;;;;-0.10;86.79;101500.88;4985856;28;20024;-71
2023/03/05 05:58:35;;;;;;;;;;;;;;;0.02;86.84;101499.44;4995551;28;20374;-71
2023/03/05 06:01:12;;;;;;;;;;;;;;;-0.03;86.60;101504.44;5001474;28;19923;-71
2023/03/05 06:03:37;;;;;;;;;;;;;;;0.04;86.16;101502.69;5000239;28;20723;-71
2023/03/05 06:06:06;;;;;;;;;;;;;;;0.13;85.91;101504.22;4998287;28;19925;-71
2023/03/05 06:08:32;;;;;;;;;;;;;;;0.09;86.03;101505.63;4983459;28;19920;-71
2023/03/05 06:10:58;;;;;;;;;;;;;;;0.13;85.96;101496.34;4993463;28;19917;-70
2023/03/05 06:13:23;;;;;;;;;;;;;;;0.20;85.52;101496.41;4992831;28;19918;-70
2023/03/05 06:15:56;;;;;;;;;;;;;;;0.24;85.22;101500.34;5001647;28;20341;-71
2023/03/05 06:18:22;;;;;;;;;;;;;;;0.31;84.84;101498.59;4983079;28;20476;-71
2023/03/05 06:20:57;;;;;;;;;;;;;;;0.33;84.97;101506.31;5002791;28;19917;-71
2023/03/05 06:23:23;;;;;;;;;;;;;;;0.35;84.92;101504.34;4991697;28;19914;-71
2023/03/05 06:25:49;;;;;;;;;;;;;;;0.39;85.19;101500.31;4986327;28;19917;-72
2023/03/05 06:28:14;;;;;;;;;;;;;;;0.43;84.63;101502.41;5004231;28;19924;-71
2023/03/05 06:30:40;;;;;;;;;;;;;;;0.45;84.79;101502.22;5001857;28;20675;-72
2023/03/05 06:33:05;;;;;;;;;;;;;;;0.42;84.83;101502.59;5003143;28;20015;-72
2023/03/05 06:35:31;;;;;;;;;;;;;;;0.47;84.45;101503.66;4992689;28;20381;-72
2023/03/05 06:37:57;;;;;;;;;;;;;;;0.46;84.66;101493.31;4987085;28;19944;-71
2023/03/05 06:40:22;;;;;;;;;;;;;;;0.51;83.77;101504.13;4986435;28;19943;-71
2023/03/05 06:42:48;;;;;;;;;;;;;;;0.47;83.91;101498.38;4993092;28;19917;-70
2023/03/05 06:45:13;;;;;;;;;;;;;;;0.56;83.92;101501.75;4997943;28;20295;-72
2023/03/05 06:47:39;;;;;;;;;;;;;;;0.63;83.61;101500.00;4983746;28;19917;-70
2023/03/05 06:50:05;;;;;;;;;;;;;;;0.62;83.87;101505.47;4999059;28;19917;-71
2023/03/05 06:52:30;;;;;;;;;;;;;;;0.63;83.68;101493.94;4998923;28;19924;-72
2023/03/05 06:54:56;;;;;;;;;;;;;;;0.68;83.70;101500.28;4998766;28;19921;-72
2023/03/05 06:57:22;;;;;;;;;;;;;;;0.73;83.89;101499.69;5001490;28;19949;-72
2023/03/05 06:59:48;;;;;;;;;;;;;;;0.75;83.63;101495.91;5001096;28;19996;-70
2023/03/05 07:02:13;;;;;;;;;;;;;;;0.75;83.26;101490.63;5001090;28;19913;-71
2023/03/05 07:04:39;;;;;;;;;;;;;;;0.79;83.98;101497.13;4999746;28;19925;-70
2023/03/05 07:07:04;;;;;;;;;;;;;;;0.96;83.74;101502.19;5002156;28;19936;-71
2023/03/05 07:09:30;;;;;;;;;;;;;;;0.95;83.76;101503.19;5001510;28;19917;-72
2023/03/05 07:11:56;;;;;;;;;;;;;;;0.97;83.87;101501.19;5000520;28;19971;-70
2023/03/05 07:14:21;;;;;;;;;;;;;;;0.96;83.71;101503.00;4993905;28;19967;-70
2023/03/05 07:16:47;;;;;;;;;;;;;;;0.98;84.04;101506.25;4982497;28;20012;-70
2023/03/05 07:19:12;;;;;;;;;;;;;;;0.99;84.53;101507.91;5016135;28;20003;-71
2023/03/05 07:21:38;;;;;;;;;;;;;;;1.01;84.58;101499.78;4991680;28;19920;-71
2023/03/05 07:24:04;;;;;;;;;;;;;;;1.11;84.40;101492.41;4984135;28;20293;-70
2023/03/05 07:26:32;;;;;;;;;;;;;;;1.03;84.69;101498.63;5002509;28;19925;-71
2023/03/05 07:28:58;;;;;;;;;;;;;;;1.02;85.05;101497.00;4986952;28;20008;-71
2023/03/05 07:31:30;;;;;;;;;;;;;;;0.99;85.16;101486.78;4977220;28;19996;-71
2023/03/05 07:33:58;;;;;;;;;;;;;;;0.99;85.03;101491.25;5003536;28;19913;-70
2023/03/05 07:36:23;;;;;;;;;;;;;;;1.13;85.43;101500.13;4985129;28;20414;-71
2023/03/05 07:38:48;;;;;;;;;;;;;;;1.21;84.49;101498.16;5003106;28;19917;-70
2023/03/05 07:41:18;;;;;;;;;;;;;;;1.28;84.26;101496.38;5009554;28;19917;-70
2023/03/05 07:43:45;;;;;;;;;;;;;;;1.47;83.87;101496.75;5002554;28;20003;-70
2023/03/05 07:46:12;;;;;;;;;;;;;;;1.68;83.47;101494.06;5006475;28;19921;-71
2023/03/05 07:48:38;;;;;;;;;;;;;;;1.72;82.23;101495.31;5005231;28;19921;-71
2023/03/05 07:51:05;;;;;;;;;;;;;;;1.84;82.92;101491.16;4990206;28;19917;-69
2023/03/05 07:53:33;;;;;;;;;;;;;;;1.79;82.52;101480.34;5005801;28;19917;-70
2023/03/05 07:55:58;;;;;;;;;;;;;;;1.57;82.68;101490.16;4998016;28;19927;-71
2023/03/05 07:58:25;;;;;;;;;;;;;;;1.62;82.53;101490.38;4985754;28;20286;-71
2023/03/05 08:00:50;;;;;;;;;;;;;;;1.54;82.12;101489.69;4998756;28;20530;-71
2023/03/05 08:03:16;;;;;;;;;;;;;;;1.52;81.91;101483.81;5002001;28;19917;-71
2023/03/05 08:05:42;;;;;;;;;;;;;;;1.45;82.28;101478.47;4969861;28;19924;-71
2023/03/05 08:08:08;;;;;;;;;;;;;;;1.61;81.86;101485.28;5000180;28;19913;-71
2023/03/05 08:10:34;;;;;;;;;;;;;;;1.54;80.38;101479.16;5003279;28;20394;-71
2023/03/05 08:12:59;;;;;;;;;;;;;;;1.66;80.20;101480.25;4997516;28;19960;-71
2023/03/05 08:15:25;;;;;;;;;;;;;;;1.72;80.51;101476.84;4990577;28;19952;-72
2023/03/05 08:17:50;;;;;;;;;;;;;;;2.03;80.28;101467.66;4984142;28;20345;-72
2023/03/05 08:20:18;;;;;;;;;;;;;;;2.10;78.78;101465.88;5000686;28;20416;-71
2023/03/05 08:22:45;;;;;;;;;;;;;;;2.24;76.84;101459.66;5002823;28;19918;-71
2023/03/05 08:25:11;;;;;;;;;;;;;;;2.25;77.18;101456.00;4992397;28;19928;-71
2023/03/05 08:27:39;;;;;;;;;;;;;;;2.49;77.20;101456.47;4985002;28;19917;-70
2023/03/05 08:30:05;;;;;;;;;;;;;;;2.50;76.75;101458.91;5000210;28;19924;-72
2023/03/05 08:32:31;;;;;;;;;;;;;;;2.59;77.22;101456.94;5001657;28;19917;-71
2023/03/05 08:35:01;;;;;;;;;;;;;;;2.39;76.28;101447.09;5002792;28;19925;-69
2023/03/05 08:37:27;;;;;;;;;;;;;;;2.26;76.27;101447.06;5000844;28;19980;-71
2023/03/05 08:39:55;;;;;;;;;;;;;;;2.32;77.13;101451.56;4999396;28;19920;-71
2023/03/05 08:42:20;;;;;;;;;;;;;;;2.32;75.30;101443.63;5001067;28;19913;-72
2023/03/05 08:44:46;;;;;;;;;;;;;;;2.41;76.42;101447.72;5001317;28;20277;-71
2023/03/05 08:47:11;;;;;;;;;;;;;;;2.82;76.59;101438.88;4984848;28;19921;-72
2023/03/05 08:49:37;;;;;;;;;;;;;;;2.79;76.18;101441.13;5005948;28;20053;-72
2023/03/05 08:52:03;;;;;;;;;;;;;;;2.86;75.45;101437.47;4984925;28;19913;-69
2023/03/05 08:54:28;;;;;;;;;;;;;;;2.80;74.74;101443.56;4990615;28;19960;-71
2023/03/05 08:56:54;;;;;;;;;;;;;;;2.58;76.66;101429.69;4984130;28;20669;-71
2023/03/05 08:59:19;;;;;;;;;;;;;;;2.77;74.43;101428.06;4983610;28;19924;-71
2023/03/05 09:01:44;;;;;;;;;;;;;;;2.73;74.14;101424.22;4985091;28;19917;-70
2023/03/05 09:04:10;;;;;;;;;;;;;;;2.89;74.71;101421.16;4998762;28;20028;-71
2023/03/05 09:06:39;;;;;;;;;;;;;;;3.20;74.53;101430.38;5001895;28;20542;-71
2023/03/05 09:09:06;;;;;;;;;;;;;;;3.49;71.23;101427.28;4998762;28;20011;-70
2023/03/05 09:11:35;;;;;;;;;;;;;;;3.64;69.34;101418.28;4984689;28;20280;-70
2023/03/05 09:14:04;;;;;;;;;;;;;;;3.80;70.70;101421.31;4997740;28;19980;-70
2023/03/05 09:16:30;;;;;;;;;;;;;;;3.98;70.21;101415.34;4990862;28;19928;-70
2023/03/05 09:18:57;;;;;;;;;;;;;;;3.76;69.45;101416.63;5001469;28;19913;-70
2023/03/05 09:21:24;;;;;;;;;;;;;;;3.74;69.71;101416.03;4999689;28;19929;-71
2023/03/05 09:23:50;;;;;;;;;;;;;;;3.79;70.18;101413.56;5000304;28;19917;-71
2023/03/05 09:26:18;;;;;;;;;;;;;;;3.98;68.59;101412.69;4983594;28;20549;-70
2023/03/05 09:28:44;;;;;;;;;;;;;;;3.91;68.69;101409.25;5000705;28;20092;-71
2023/03/05 09:31:10;;;;;;;;;;;;;;;4.02;69.38;101405.94;4999039;28;19918;-70
2023/03/05 09:33:35;;;;;;;;;;;;;;;4.07;68.38;101403.50;4984641;28;19924;-69
2023/03/05 09:36:01;;;;;;;;;;;;;;;4.22;66.14;101394.44;4997062;28;19921;-71
2023/03/05 09:38:27;;;;;;;;;;;;;;;4.32;65.61;101389.50;4997733;28;19922;-70
2023/03/05 09:40:57;;;;;;;;;;;;;;;4.57;66.81;101384.25;4997460;28;20000;-70
2023/03/05 09:43:41;;;;;;;;;;;;;;;4.43;64.95;101383.53;4998959;28;20379;-72
2023/03/05 09:46:13;;;;;;;;;;;;;;;4.88;64.53;101386.91;4965212;28;20359;-70
2023/03/05 09:48:48;;;;;;;;;;;;;;;5.29;62.65;101384.72;4999902;28;19913;-70
2023/03/05 09:51:17;;;;;;;;;;;;;;;4.71;63.50;101385.78;4999916;28;19967;-72
2023/03/05 09:54:03;;;;;;;;;;;;;;;4.65;63.11;101382.16;5007707;28;19913;-72
2023/03/05 09:56:49;;;;;;;;;;;;;;;4.65;62.22;101389.28;5005729;28;19928;-70
2023/03/05 09:59:18;;;;;;;;;;;;;;;4.58;60.62;101381.38;5001447;28;19968;-70
2023/03/05 10:01:45;;;;;;;;;;;;;;;4.31;61.69;101377.25;5000973;28;19921;-70
2023/03/05 10:04:23;;;;;;;;;;;;;;;4.05;62.49;101376.34;4968111;28;19923;-70
2023/03/05 10:06:52;;;;;;;;;;;;;;;3.62;63.87;101373.47;5001650;28;20716;-70
2023/03/05 10:09:33;;;;;;;;;;;;;;;3.81;63.93;101380.56;4999649;28;19944;-70
2023/03/05 10:12:04;;;;;;;;;;;;;;;3.73;65.01;101379.97;4983910;28;19917;-70
2023/03/05 10:14:40;;;;;;;;;;;;;;;3.32;67.11;101385.53;4998666;28;20092;-70
2023/03/05 10:17:24;;;;;;;;;;;;;;;2.62;69.56;101399.16;4968600;28;19922;-70
2023/03/05 10:20:06;;;;;;;;;;;;;;;2.23;74.25;101399.06;4998433;28;19913;-71
2023/03/05 10:22:46;;;;;;;;;;;;;;;2.07;74.33;101410.78;4974750;28;19939;-71
2023/03/05 10:25:25;;;;;;;;;;;;;;;1.43;77.65;101403.16;4999620;28;19917;-70
2023/03/05 10:27:51;;;;;;;;;;;;;;;1.03;79.59;101411.56;5001525;28;20043;-70
2023/03/05 10:30:29;;;;;;;;;;;;;;;0.75;81.12;101408.06;5000567;28;19917;-70
2023/03/05 10:33:14;;;;;;;;;;;;;;;0.75;82.13;101394.91;4997489;28;19924;-71
2023/03/05 10:35:46;;;;;;;;;;;;;;;0.58;82.67;101389.03;4999754;28;20099;-70
2023/03/05 10:38:30;;;;;;;;;;;;;;;0.58;84.04;101388.22;4966348;28;20375;-70
2023/03/05 10:40:56;;;;;;;;;;;;;;;0.79;84.55;101390.84;4969363;28;20371;-71
2023/03/05 10:43:41;;;;;;;;;;;;;;;0.99;84.53;101383.13;5001396;28;19960;-70
2023/03/05 10:46:12;;;;;;;;;;;;;;;1.13;84.26;101387.50;4984046;28;19975;-71
2023/03/05 10:48:41;;;;;;;;;;;;;;;1.02;84.47;101380.94;5002034;28;19917;-71
2023/03/05 10:51:11;;;;;;;;;;;;;;;0.79;84.64;101375.84;4986701;28;20362;-70
2023/03/05 10:53:58;;;;;;;;;;;;;;;0.75;84.93;101382.53;4985959;28;19921;-70
2023/03/05 10:56:25;;;;;;;;;;;;;;;0.98;85.91;101389.41;4988239;28;19971;-70
2023/03/05 10:58:51;;;;;;;;;;;;;;;1.44;84.95;101381.81;5011028;28;19913;-70
2023/03/05 11:01:16;;;;;;;;;;;;;;;2.27;82.75;101379.97;5004119;28;19925;-70
2023/03/05 11:03:51;;;;;;;;;;;;;;;2.21;81.62;101367.53;5008505;28;20016;-69
2023/03/05 11:06:26;;;;;;;;;;;;;;;2.83;82.70;101362.97;5006480;28;20032;-70
2023/03/05 11:08:51;;;;;;;;;;;;;;;3.16;81.01;101347.88;5003038;28;19921;-72
2023/03/05 11:11:21;;;;;;;;;;;;;;;3.20;79.58;101345.66;5000635;28;20424;-70
2023/03/05 11:13:55;;;;;;;;;;;;;;;3.51;79.13;101340.47;5004493;28;19921;-70
2023/03/05 11:16:22;;;;;;;;;;;;;;;4.08;78.91;101333.53;5006660;28;19918;-70
2023/03/05 11:18:48;;;;;;;;;;;;;;;4.51;76.18;101329.41;5004966;28;19917;-71
2023/03/05 11:21:16;;;;;;;;;;;;;;;5.20;75.56;101323.91;4985647;28;19924;-71
2023/03/05 11:23:42;;;;;;;;;;;;;;;4.95;70.46;101325.00;5005870;28;19921;-71
2023/03/05 11:26:23;;;;;;;;;;;;;;;5.10;71.29;101313.00;4977219;28;19987;-71
2023/03/05 11:28:52;;;;;;;;;;;;;;;5.34;68.99;101316.63;5004412;28;19917;-72
2023/03/05 11:31:17;;;;;;;;;;;;;;;4.96;70.61;101311.50;5005466;28;20425;-70
2023/03/05 11:34:02;;;;;;;;;;;;;;;4.42;68.51;101310.28;5005384;28;19917;-71
2023/03/05 11:36:32;;;;;;;;;;;;;;;3.95;68.33;101303.66;5006852;28;20368;-71
2023/03/05 11:39:04;;;;;;;;;;;;;;;3.65;69.29;101308.66;4995264;28;19922;-71
2023/03/05 11:41:33;;;;;;;;;;;;;;;3.79;69.35;101311.06;5008780;28;19929;-72
2023/03/05 11:44:02;;;;;;;;;;;;;;;3.99;68.47;101303.00;4989434;28;20188;-72
2023/03/05 11:46:31;;;;;;;;;;;;;;;4.17;69.15;101301.47;5003470;28;19921;-71
2023/03/05 11:48:57;;;;;;;;;;;;;;;4.84;66.45;101292.81;4986738;28;19921;-71
2023/03/05 11:51:31;;;;;;;;;;;;;;;5.09;61.72;101284.81;4987417;28;19918;-71
2023/03/05 11:54:00;;;;;;;;;;;;;;;5.77;59.73;101275.88;5001993;28;19917;-72
2023/03/05 11:56:36;;;;;;;;;;;;;;;6.35;58.45;101274.44;5002711;28;20058;-71
2023/03/05 11:59:19;;;;;;;;;;;;;;;6.13;57.23;101269.66;5003555;28;20294;-71
2023/03/05 12:01:52;;;;;;;;;;;;;;;6.40;57.74;101258.63;4988010;28;20000;-71
2023/03/05 12:04:18;;;;;;;;;;;;;;;6.64;57.58;101262.94;4988401;28;19921;-71
2023/03/05 12:06:49;;;;;;;;;;;;;;;6.38;55.07;101252.72;4980046;28;20063;-72
2023/03/05 12:09:36;;;;;;;;;;;;;;;6.63;55.40;101245.31;5002520;28;20643;-73
2023/03/05 12:12:11;;;;;;;;;;;;;;;6.70;55.75;101238.03;5003072;28;20424;-71
2023/03/05 12:14:46;;;;;;;;;;;;;;;6.38;55.34;101242.91;5004214;28;20000;-72
2023/03/05 12:17:18;;;;;;;;;;;;;;;6.45;55.34;101245.44;4998108;28;19957;-71
2023/03/05 12:19:47;;;;;;;;;;;;;;;6.10;52.47;101238.22;4982895;28;19921;-72
2023/03/05 12:22:19;;;;;;;;;;;;;;;6.29;53.77;101245.06;4985621;28;20469;-72
2023/03/05 12:24:45;;;;;;;;;;;;;;;6.09;54.07;101235.75;5006455;28;20580;-72
2023/03/05 12:27:14;;;;;;;;;;;;;;;5.93;56.80;101234.56;5003693;28;19921;-72
2023/03/05 12:29:47;;;;;;;;;;;;;;;5.67;56.51;101231.22;5003403;28;20449;-71
2023/03/05 12:32:30;;;;;;;;;;;;;;;5.36;58.70;101218.16;4989308;28;19971;-72
2023/03/05 12:35:03;;;;;;;;;;;;;;;4.87;59.37;101219.91;5001205;28;19917;-72
2023/03/05 12:37:28;;;;;;;;;;;;;;;5.03;58.70;101211.38;4981889;28;19983;-72
2023/03/05 12:39:59;;;;;;;;;;;;;;;5.43;58.09;101221.53;5002810;28;19917;-73
2023/03/05 12:42:28;;;;;;;;;;;;;;;5.19;56.65;101210.75;5003872;28;20069;-72
2023/03/05 12:45:13;;;;;;;;;;;;;;;5.49;57.52;101212.66;4976979;28;19996;-72
2023/03/05 12:47:40;;;;;;;;;;;;;;;5.53;54.89;101205.84;5004482;28;20371;-72
2023/03/05 12:50:24;;;;;;;;;;;;;;;5.32;55.11;101206.34;5000344;28;19917;-72